createdAt,value
2023-05-25T00:12:23.648Z,11.11
2023-05-25T00:27:29.463Z,10.75
2023-05-25T00:42:36.076Z,10.53
2023-05-25T00:57:46.305Z,10.52
2023-05-25T01:12:54.853Z,10.18
2023-05-25T01:28:04.936Z,10.53
2023-05-25T01:43:10.787Z,10.71
2023-05-25T01:58:17.929Z,10.78
2023-05-25T02:13:23.803Z,10.83
2023-05-25T02:28:29.544Z,10.92
2023-05-25T02:43:35.183Z,10.86
2023-05-25T02:58:41.116Z,10.88
2023-05-25T03:13:46.792Z,10.99
2023-05-25T03:28:52.477Z,10.86
2023-05-25T03:43:58.216Z,11.01
2023-05-25T03:59:03.815Z,10.95
2023-05-25T04:14:09.560Z,10.88
2023-05-25T04:29:15.664Z,11.07
2023-05-25T04:44:21.615Z,11.19
2023-05-25T04:59:27.283Z,11.38
2023-05-25T05:14:32.956Z,11.71
2023-05-25T05:29:38.773Z,12.41
2023-05-25T05:44:44.401Z,12.46
2023-05-25T05:59:50.195Z,12.94
2023-05-25T06:14:55.891Z,12.99
2023-05-25T06:30:01.300Z,13.71
2023-05-25T06:45:08.357Z,13.93
2023-05-25T07:00:16.886Z,14.66
2023-05-25T07:15:24.269Z,16.04
2023-05-25T07:30:29.940Z,17.25
2023-05-25T07:45:35.808Z,18.76
2023-05-25T08:00:41.523Z,18.80
2023-05-25T08:15:47.526Z,19.82
2023-05-25T08:30:54.308Z,21.05
2023-05-25T08:46:05.455Z,21.13
2023-05-25T09:01:13.561Z,20.62
2023-05-25T09:16:20.434Z,21.57
2023-05-25T09:31:27.082Z,21.49
2023-05-25T09:46:37.035Z,22.49
2023-05-25T10:01:44.646Z,21.63
2023-05-25T10:16:52.642Z,21.10
2023-05-25T10:32:00.257Z,21.25
2023-05-25T10:47:07.726Z,24.24
2023-05-25T11:02:13.856Z,22.87
2023-05-25T11:17:21.133Z,23.41
2023-05-25T11:32:28.790Z,23.49
2023-05-25T11:47:35.904Z,25.32
2023-05-25T12:02:43.977Z,24.29
2023-05-25T12:17:50.808Z,23.99
2023-05-25T12:33:04.903Z,23.20
2023-05-25T12:48:11.289Z,25.50
2023-05-25T13:03:20.427Z,27.30
2023-05-25T13:18:26.332Z,26.06
2023-05-25T13:33:32.123Z,24.65
2023-05-25T13:48:38.346Z,23.71
2023-05-25T14:03:44.266Z,23.75
2023-05-25T14:18:50.159Z,24.61
2023-05-25T14:33:56.002Z,24.77
2023-05-25T14:49:01.613Z,24.25
2023-05-25T15:04:10.932Z,24.53
2023-05-25T15:19:17.789Z,24.94
2023-05-25T15:34:24.454Z,24.16
2023-05-25T15:49:30.494Z,23.50
2023-05-25T16:04:36.503Z,24.06
2023-05-25T16:19:42.444Z,23.66
2023-05-25T16:34:48.420Z,23.98
2023-05-25T16:49:54.545Z,23.14
2023-05-25T17:05:00.590Z,22.88
2023-05-25T17:20:07.206Z,22.68
2023-05-25T17:35:13.464Z,22.37
2023-05-25T17:50:19.405Z,21.99
2023-05-25T18:05:25.335Z,21.74
2023-05-25T18:20:31.196Z,21.49
2023-05-25T18:35:36.725Z,21.52
2023-05-25T18:50:42.467Z,21.34
2023-05-25T19:05:48.404Z,21.20
2023-05-25T19:20:54.209Z,20.92
2023-05-25T19:36:00.179Z,20.74
2023-05-25T19:51:06.784Z,20.62
2023-05-25T20:06:12.732Z,20.41
2023-05-25T20:21:19.975Z,20.36
2023-05-25T20:36:26.349Z,20.18
2023-05-25T20:51:32.970Z,19.91
2023-05-25T21:06:38.564Z,19.31
2023-05-25T21:21:44.476Z,18.73
2023-05-25T21:36:50.627Z,18.69
2023-05-25T21:51:56.201Z,18.43
2023-05-25T22:07:01.886Z,18.34
2023-05-25T22:22:08.037Z,17.73
2023-05-25T22:37:14.264Z,17.22
2023-05-25T22:52:19.843Z,16.88
2023-05-25T23:07:25.473Z,16.52
2023-05-25T23:22:31.300Z,16.08
2023-05-25T23:37:36.951Z,15.65
2023-05-25T23:52:43.127Z,15.36
